createdAt,value
2022-08-17T00:00:11.977Z,3.07
2022-08-17T00:02:59.674Z,2.93
2022-08-17T00:05:27.742Z,3.07
2022-08-17T00:07:55.342Z,2.60
2022-08-17T00:10:24.919Z,3.13
2022-08-17T00:12:52.877Z,2.30
2022-08-17T00:15:21.063Z,3.17
2022-08-17T00:17:49.584Z,2.20
2022-08-17T00:20:17.328Z,2.70
2022-08-17T00:22:47.518Z,3.00
2022-08-17T00:25:19.488Z,2.43
2022-08-17T00:27:48.375Z,3.17
2022-08-17T00:30:15.892Z,3.20
2022-08-17T00:33:15.711Z,2.90
2022-08-17T00:35:33.679Z,2.63
2022-08-17T00:38:01.483Z,2.90
2022-08-17T00:40:40.610Z,3.37
2022-08-17T00:43:18.010Z,3.13
2022-08-17T00:45:45.990Z,2.60
2022-08-17T00:48:29.007Z,3.07
2022-08-17T00:51:00.970Z,3.53
2022-08-17T00:53:30.841Z,3.07
2022-08-17T00:55:59.004Z,2.50
2022-08-17T00:58:35.774Z,3.33
2022-08-17T01:01:04.751Z,2.90
2022-08-17T01:03:32.583Z,2.83
2022-08-17T01:06:02.713Z,2.90
2022-08-17T01:08:31.540Z,2.60
2022-08-17T01:11:02.234Z,2.83
2022-08-17T01:13:39.824Z,2.27
2022-08-17T01:16:13.358Z,3.03
2022-08-17T01:18:42.098Z,3.10
2022-08-17T01:21:16.019Z,2.60
2022-08-17T01:23:44.862Z,3.10
2022-08-17T01:26:12.346Z,2.67
2022-08-17T01:28:53.740Z,2.93
2022-08-17T01:31:24.812Z,2.80
2022-08-17T01:33:52.405Z,2.73
2022-08-17T01:36:20.194Z,2.90
2022-08-17T01:38:49.030Z,3.50
2022-08-17T01:41:17.354Z,2.80
2022-08-17T01:43:47.282Z,2.87
2022-08-17T01:46:16.837Z,2.27
2022-08-17T01:48:47.300Z,2.00
2022-08-17T01:51:15.702Z,2.90
2022-08-17T01:53:46.345Z,2.87
2022-08-17T01:56:17.581Z,2.90
2022-08-17T01:58:45.615Z,3.13
2022-08-17T02:01:14.897Z,2.90
2022-08-17T02:03:59.259Z,3.03
2022-08-17T02:06:29.726Z,2.87
2022-08-17T02:09:02.476Z,3.00
2022-08-17T02:11:34.259Z,2.57
2022-08-17T02:14:03.994Z,3.00
2022-08-17T02:16:37.420Z,2.67
2022-08-17T02:19:07.885Z,2.80
2022-08-17T02:21:35.577Z,2.70
2022-08-17T02:24:03.630Z,2.80
2022-08-17T02:26:32.469Z,2.73
2022-08-17T02:29:00.021Z,2.70
2022-08-17T02:31:27.646Z,2.73
2022-08-17T02:34:03.338Z,2.97
2022-08-17T02:36:32.501Z,2.70
2022-08-17T02:39:00.750Z,3.00
2022-08-17T02:41:28.339Z,3.70
2022-08-17T02:43:57.251Z,3.00
2022-08-17T02:46:24.752Z,2.30
2022-08-17T02:48:52.258Z,2.90
2022-08-17T02:51:20.480Z,2.70
2022-08-17T02:53:47.984Z,3.37
2022-08-17T02:56:15.779Z,2.80
2022-08-17T02:58:43.292Z,3.10
2022-08-17T03:01:12.577Z,3.03
2022-08-17T03:03:40.856Z,2.73
2022-08-17T03:06:09.353Z,2.50
2022-08-17T03:08:37.405Z,3.43
2022-08-17T03:11:05.118Z,3.43
2022-08-17T03:13:32.601Z,3.23
2022-08-17T03:16:00.110Z,2.80
2022-08-17T03:18:28.995Z,2.97
2022-08-17T03:20:58.330Z,2.80
2022-08-17T03:23:27.301Z,2.80
2022-08-17T03:25:56.153Z,2.60
2022-08-17T03:28:24.201Z,2.43
2022-08-17T03:30:52.240Z,3.00
2022-08-17T03:33:20.595Z,2.80
2022-08-17T03:35:49.467Z,2.90
2022-08-17T03:38:17.817Z,3.23
2022-08-17T03:40:58.957Z,2.67
2022-08-17T03:43:29.422Z,3.60
2022-08-17T03:46:27.915Z,2.97
2022-08-17T03:49:17.814Z,3.00
2022-08-17T03:52:09.681Z,2.80
2022-08-17T03:54:55.083Z,3.27
2022-08-17T03:57:22.611Z,3.00
2022-08-17T03:59:50.242Z,3.37
2022-08-17T04:02:20.310Z,3.20
2022-08-17T04:04:50.619Z,3.50
2022-08-17T04:07:20.320Z,3.07
2022-08-17T04:09:47.882Z,2.80
2022-08-17T04:12:16.333Z,2.80
2022-08-17T04:14:53.562Z,2.50
2022-08-17T04:17:24.099Z,3.40
2022-08-17T04:19:51.650Z,2.67
2022-08-17T04:22:30.894Z,2.90
2022-08-17T04:25:03.510Z,3.40
2022-08-17T04:27:30.993Z,2.50
2022-08-17T04:29:58.838Z,3.50
2022-08-17T04:33:00.767Z,3.20
2022-08-17T04:35:13.799Z,3.17
2022-08-17T04:37:42.633Z,2.63
2022-08-17T04:40:31.628Z,3.07
2022-08-17T04:43:03.564Z,2.73
2022-08-17T04:45:31.949Z,3.00
2022-08-17T04:48:00.588Z,2.87
2022-08-17T04:50:28.160Z,3.20
2022-08-17T04:52:57.302Z,3.37
2022-08-17T04:55:25.035Z,2.80
2022-08-17T04:57:52.516Z,3.13
2022-08-17T05:00:20.268Z,3.93
2022-08-17T05:02:50.352Z,2.97
2022-08-17T05:05:19.903Z,3.53
2022-08-17T05:07:48.551Z,3.37
2022-08-17T05:10:17.747Z,3.30
2022-08-17T05:12:45.226Z,3.13
2022-08-17T05:15:15.991Z,2.73
2022-08-17T05:17:43.553Z,3.50
2022-08-17T05:20:11.693Z,3.17
2022-08-17T05:22:50.157Z,2.83
2022-08-17T05:25:23.927Z,3.30
2022-08-17T05:27:53.361Z,2.87
2022-08-17T05:30:21.016Z,3.00
2022-08-17T05:32:53.492Z,3.03
2022-08-17T05:35:21.364Z,3.10
2022-08-17T05:37:48.914Z,3.00
2022-08-17T05:40:17.090Z,3.23
2022-08-17T05:42:45.944Z,3.30
2022-08-17T05:45:15.638Z,2.93
2022-08-17T05:47:44.560Z,3.20
2022-08-17T05:50:18.071Z,3.00
2022-08-17T05:52:51.909Z,3.20
2022-08-17T05:55:24.442Z,3.40
2022-08-17T05:58:05.472Z,2.97
2022-08-17T06:00:41.882Z,2.83
2022-08-17T06:03:20.270Z,3.23
2022-08-17T06:05:58.087Z,3.27
2022-08-17T06:08:33.659Z,3.30
2022-08-17T06:11:10.730Z,4.07
2022-08-17T06:13:58.819Z,3.53
2022-08-17T06:16:34.455Z,3.50
2022-08-17T06:19:05.359Z,3.43
2022-08-17T06:21:36.125Z,4.27
2022-08-17T06:24:07.453Z,3.10
2022-08-17T06:26:42.444Z,3.57
2022-08-17T06:29:33.428Z,3.47
2022-08-17T06:32:02.387Z,3.93
2022-08-17T06:34:30.183Z,3.43
2022-08-17T06:37:03.629Z,3.53
2022-08-17T06:39:42.510Z,3.10
2022-08-17T06:42:54.120Z,3.30
2022-08-17T06:45:09.772Z,2.53
2022-08-17T06:47:41.311Z,3.27
2022-08-17T06:50:14.596Z,3.17
2022-08-17T06:52:48.525Z,3.50
2022-08-17T06:55:21.211Z,3.27
2022-08-17T06:57:52.094Z,3.40
2022-08-17T07:00:24.190Z,3.83
2022-08-17T07:02:56.203Z,3.53
2022-08-17T07:05:27.437Z,3.60
2022-08-17T07:08:04.181Z,4.07
2022-08-17T07:10:40.553Z,4.20
2022-08-17T07:13:21.178Z,3.00
2022-08-17T07:15:54.015Z,3.97
2022-08-17T07:18:26.975Z,3.87
2022-08-17T07:20:59.525Z,3.10
2022-08-17T07:23:36.368Z,3.93
2022-08-17T07:26:06.015Z,3.70
2022-08-17T07:28:34.814Z,4.47
2022-08-17T07:31:05.157Z,4.27
2022-08-17T07:33:34.834Z,3.70
2022-08-17T07:36:02.329Z,4.07
2022-08-17T07:38:31.711Z,4.03
2022-08-17T07:41:05.048Z,3.50
2022-08-17T07:43:34.107Z,4.40
2022-08-17T07:46:24.482Z,4.33
2022-08-17T07:48:53.908Z,4.00
2022-08-17T07:51:33.779Z,3.60
2022-08-17T07:54:14.137Z,3.70
2022-08-17T07:56:45.693Z,3.70
2022-08-17T07:59:16.354Z,3.80
2022-08-17T08:01:49.061Z,3.73
2022-08-17T08:07:26.696Z,3.60
2022-08-17T08:10:06.329Z,3.63
2022-08-17T08:12:36.993Z,3.53
2022-08-17T08:15:13.848Z,4.17
2022-08-17T08:17:51.795Z,4.80
2022-08-17T08:20:51.432Z,4.40
2022-08-17T08:23:15.382Z,3.83
2022-08-17T08:25:53.250Z,3.50
2022-08-17T08:28:29.375Z,3.90
2022-08-17T08:31:03.370Z,4.33
2022-08-17T08:33:45.829Z,4.27
2022-08-17T08:36:57.092Z,4.60
2022-08-17T08:39:17.764Z,4.03
2022-08-17T08:41:52.001Z,3.97
2022-08-17T08:45:00.207Z,3.50
2022-08-17T08:47:35.248Z,4.10
2022-08-17T08:50:30.227Z,4.57
2022-08-17T08:53:08.146Z,4.63
2022-08-17T08:55:46.653Z,4.73
2022-08-17T08:58:32.007Z,5.30
2022-08-17T09:01:16.846Z,4.40
2022-08-17T09:04:19.959Z,5.03
2022-08-17T09:06:59.539Z,4.90
2022-08-17T09:09:34.392Z,4.87
2022-08-17T09:12:06.738Z,4.73
2022-08-17T09:14:46.411Z,5.70
2022-08-17T09:17:18.320Z,6.27
2022-08-17T09:19:49.507Z,5.60
2022-08-17T09:22:25.686Z,5.30
2022-08-17T09:24:58.370Z,4.90
2022-08-17T09:27:29.767Z,6.10
2022-08-17T09:30:02.454Z,5.40
2022-08-17T09:32:35.454Z,5.30
2022-08-17T09:35:10.353Z,5.50
2022-08-17T09:37:49.043Z,5.00
2022-08-17T09:40:19.096Z,6.27
2022-08-17T09:42:50.517Z,5.60
2022-08-17T09:45:28.446Z,5.90
2022-08-17T09:48:00.595Z,5.27
2022-08-17T09:51:03.553Z,5.40
2022-08-17T09:53:21.040Z,5.47
2022-08-17T09:55:59.422Z,5.60
2022-08-17T09:58:41.521Z,5.30
2022-08-17T10:01:17.020Z,6.13
2022-08-17T10:04:04.856Z,6.37
2022-08-17T10:06:36.604Z,6.30
2022-08-17T10:09:10.795Z,5.67
2022-08-17T10:11:59.187Z,5.60
2022-08-17T10:14:37.906Z,5.40
2022-08-17T10:17:15.928Z,5.40
2022-08-17T10:19:51.147Z,6.50
2022-08-17T10:22:45.220Z,5.90
2022-08-17T10:25:49.066Z,5.70
2022-08-17T10:28:28.767Z,5.00
2022-08-17T10:33:58.082Z,5.70
2022-08-17T10:36:28.740Z,5.63
2022-08-17T10:39:05.186Z,5.03
2022-08-17T10:41:40.498Z,4.90
2022-08-17T10:44:40.391Z,4.97
2022-08-17T10:47:08.320Z,5.00
2022-08-17T10:49:37.050Z,4.63
2022-08-17T10:52:43.657Z,5.13
2022-08-17T10:55:17.730Z,4.67
2022-08-17T10:57:47.575Z,5.80
2022-08-17T11:01:12.689Z,4.70
2022-08-17T11:03:54.070Z,5.03
2022-08-17T11:06:26.604Z,4.70
2022-08-17T11:09:27.502Z,4.47
2022-08-17T11:12:16.292Z,4.43
2022-08-17T11:14:51.593Z,5.00
2022-08-17T11:17:41.399Z,4.30
2022-08-17T11:20:23.979Z,5.03
2022-08-17T11:23:10.511Z,5.03
2022-08-17T11:25:39.987Z,5.57
2022-08-17T11:28:10.572Z,5.37
2022-08-17T11:30:46.857Z,4.33
2022-08-17T11:33:52.346Z,5.10
2022-08-17T11:36:38.872Z,5.43
2022-08-17T11:39:18.711Z,5.30
2022-08-17T11:41:50.943Z,5.87
2022-08-17T11:44:37.613Z,4.57
2022-08-17T11:47:34.146Z,4.70
2022-08-17T11:50:39.245Z,4.60
2022-08-17T11:53:09.595Z,5.03
2022-08-17T11:56:05.583Z,4.43
2022-08-17T11:58:40.153Z,3.83
2022-08-17T12:01:08.987Z,5.00
2022-08-17T12:03:54.024Z,4.00
2022-08-17T12:06:31.103Z,3.97
2022-08-17T12:09:06.499Z,3.00
2022-08-17T12:11:56.305Z,3.23
2022-08-17T12:14:51.684Z,3.70
2022-08-17T12:17:39.658Z,3.83
2022-08-17T12:20:14.633Z,3.60
2022-08-17T12:22:53.299Z,3.47
2022-08-17T12:25:25.822Z,3.50
2022-08-17T12:28:04.839Z,3.10
2022-08-17T12:30:34.546Z,3.83
2022-08-17T12:33:02.369Z,3.67
2022-08-17T12:35:33.048Z,3.17
2022-08-17T12:38:01.132Z,3.13
2022-08-17T12:40:32.188Z,3.47
2022-08-17T12:43:01.401Z,3.37
2022-08-17T12:45:31.159Z,3.47
2022-08-17T12:48:04.074Z,3.83
2022-08-17T12:50:32.117Z,3.70
2022-08-17T12:53:02.496Z,3.20
2022-08-17T12:55:36.962Z,3.10
2022-08-17T12:58:04.949Z,3.23
2022-08-17T13:00:34.559Z,3.57
2022-08-17T13:03:07.615Z,3.53
2022-08-17T13:05:37.764Z,3.30
2022-08-17T13:08:14.685Z,3.60
2022-08-17T13:10:43.809Z,3.93
2022-08-17T13:13:22.201Z,3.27
2022-08-17T13:15:54.016Z,3.27
2022-08-17T13:18:46.215Z,3.43
2022-08-17T13:21:26.743Z,3.20
2022-08-17T13:24:01.843Z,3.90
2022-08-17T13:26:34.499Z,3.60
2022-08-17T13:29:03.196Z,3.43
2022-08-17T13:31:42.880Z,3.10
2022-08-17T13:34:34.179Z,3.33
2022-08-17T13:37:33.958Z,3.53
2022-08-17T13:40:14.235Z,2.90
2022-08-17T13:42:52.038Z,3.23
2022-08-17T13:45:39.192Z,3.07
2022-08-17T13:48:14.336Z,3.60
2022-08-17T13:50:45.445Z,3.30
2022-08-17T13:53:18.232Z,3.30
2022-08-17T13:55:49.144Z,2.80
2022-08-17T13:58:22.954Z,4.70
2022-08-17T14:00:51.664Z,3.63
2022-08-17T14:03:20.069Z,3.30
2022-08-17T14:05:48.401Z,3.20
2022-08-17T14:08:17.353Z,3.63
2022-08-17T14:10:45.457Z,3.13
2022-08-17T14:13:15.262Z,3.10
2022-08-17T14:15:53.988Z,3.50
2022-08-17T14:18:42.047Z,4.17
2022-08-17T14:21:11.955Z,3.50
2022-08-17T14:23:39.440Z,2.87
2022-08-17T14:26:08.513Z,3.00
2022-08-17T14:28:36.466Z,3.50
2022-08-17T14:31:07.340Z,2.80
2022-08-17T14:33:35.257Z,3.47
2022-08-17T14:36:02.739Z,3.10
2022-08-17T14:38:30.304Z,2.80
2022-08-17T14:40:58.222Z,3.00
2022-08-17T14:43:25.877Z,3.23
2022-08-17T14:45:53.360Z,2.53
2022-08-17T14:48:22.231Z,2.67
2022-08-17T14:50:49.717Z,2.60
2022-08-17T14:53:17.290Z,2.87
2022-08-17T14:55:45.765Z,2.80
2022-08-17T14:58:14.684Z,2.70
2022-08-17T15:00:43.588Z,2.73
2022-08-17T15:03:12.244Z,3.40
2022-08-17T15:05:44.016Z,3.13
2022-08-17T15:08:11.631Z,3.30
2022-08-17T15:10:39.610Z,3.10
2022-08-17T15:13:21.178Z,2.40
2022-08-17T15:15:49.919Z,3.10
2022-08-17T15:18:18.535Z,2.50
2022-08-17T15:20:48.638Z,2.80
2022-08-17T15:23:16.886Z,2.73
2022-08-17T15:25:44.655Z,2.80
2022-08-17T15:28:12.158Z,2.47
2022-08-17T15:30:42.931Z,2.80
2022-08-17T15:33:14.113Z,2.30
2022-08-17T15:35:44.151Z,2.50
2022-08-17T15:38:13.369Z,5.50
2022-08-17T15:40:45.336Z,2.70
2022-08-17T15:43:14.695Z,2.30
2022-08-17T15:45:42.435Z,2.53
2022-08-17T15:48:10.352Z,2.30
2022-08-17T15:50:38.297Z,3.10
2022-08-17T15:53:05.781Z,6.63
2022-08-17T15:55:35.222Z,3.90
2022-08-17T15:58:02.815Z,2.67
2022-08-17T16:00:30.449Z,2.90
2022-08-17T16:03:44.914Z,2.60
2022-08-17T16:05:47.546Z,2.37
2022-08-17T16:08:20.606Z,2.77
2022-08-17T16:10:49.929Z,2.77
2022-08-17T16:13:18.289Z,2.63
2022-08-17T16:15:51.040Z,2.13
2022-08-17T16:18:25.538Z,3.13
2022-08-17T16:20:53.576Z,2.60
2022-08-17T16:23:21.041Z,2.67
2022-08-17T16:25:53.717Z,2.23
2022-08-17T16:28:35.791Z,2.67
2022-08-17T16:31:05.790Z,2.60
2022-08-17T16:33:35.824Z,2.60
2022-08-17T16:36:03.573Z,2.40
2022-08-17T16:38:31.060Z,2.50
2022-08-17T16:40:59.984Z,1.90
2022-08-17T16:43:28.673Z,2.40
2022-08-17T16:45:56.159Z,2.30
2022-08-17T16:48:24.215Z,3.10
2022-08-17T16:51:02.933Z,2.50
2022-08-17T16:53:31.480Z,2.83
2022-08-17T16:56:00.415Z,2.47
2022-08-17T16:58:27.949Z,2.70
2022-08-17T17:00:57.159Z,2.90
2022-08-17T17:03:26.031Z,2.70
2022-08-17T17:06:00.499Z,2.80
2022-08-17T17:08:34.681Z,2.30
2022-08-17T17:11:10.345Z,2.60
2022-08-17T17:13:40.341Z,3.07
2022-08-17T17:16:14.790Z,3.10
2022-08-17T17:18:56.270Z,2.57
2022-08-17T17:21:26.649Z,3.20
2022-08-17T17:23:57.790Z,3.23
2022-08-17T17:26:35.322Z,3.60
2022-08-17T17:29:16.273Z,3.40
2022-08-17T17:31:51.690Z,3.33
2022-08-17T17:34:19.940Z,3.47
2022-08-17T17:36:51.682Z,2.90
2022-08-17T17:39:31.878Z,3.23
2022-08-17T17:42:05.703Z,3.60
2022-08-17T17:44:36.011Z,3.50
2022-08-17T17:47:04.516Z,3.00
2022-08-17T17:49:35.322Z,3.30
2022-08-17T17:52:13.186Z,3.13
2022-08-17T17:54:57.429Z,2.80
2022-08-17T17:57:34.096Z,3.20
2022-08-17T18:00:06.710Z,3.10
2022-08-17T18:02:51.548Z,3.50
2022-08-17T18:05:40.283Z,3.73
2022-08-17T18:08:12.633Z,3.57
2022-08-17T18:10:49.125Z,3.47
2022-08-17T18:13:22.748Z,3.73
2022-08-17T18:15:54.767Z,3.03
2022-08-17T18:18:37.566Z,3.53
2022-08-17T18:21:14.717Z,3.10
2022-08-17T18:23:54.908Z,3.50
2022-08-17T18:26:37.914Z,3.23
2022-08-17T18:29:22.894Z,3.30
2022-08-17T18:32:12.450Z,3.07
2022-08-17T18:34:48.521Z,3.23
2022-08-17T18:37:35.070Z,3.10
2022-08-17T18:40:26.014Z,2.80
2022-08-17T18:43:12.789Z,2.90
2022-08-17T18:45:48.338Z,3.53
2022-08-17T18:48:33.176Z,3.83
2022-08-17T18:51:02.607Z,3.57
2022-08-17T18:53:39.145Z,3.80
2022-08-17T18:56:30.703Z,3.90
2022-08-17T18:59:22.924Z,3.30
2022-08-17T19:02:10.251Z,3.80
2022-08-17T19:04:42.266Z,3.80
2022-08-17T19:07:14.039Z,4.17
2022-08-17T19:09:45.222Z,4.20
2022-08-17T19:12:27.190Z,4.57
2022-08-17T19:14:56.444Z,6.00
2022-08-17T19:17:30.078Z,4.60
2022-08-17T19:20:01.161Z,5.07
2022-08-17T19:22:37.181Z,4.33
2022-08-17T19:25:11.495Z,3.67
2022-08-17T19:27:49.965Z,3.80
2022-08-17T19:30:18.046Z,4.00
2022-08-17T19:32:46.926Z,3.20
2022-08-17T19:35:17.543Z,4.30
2022-08-17T19:37:52.677Z,3.90
2022-08-17T19:40:50.979Z,4.10
2022-08-17T19:43:19.727Z,3.63
2022-08-17T19:45:56.954Z,3.90
2022-08-17T19:48:35.535Z,4.13
2022-08-17T19:51:07.283Z,5.13
2022-08-17T19:54:04.506Z,3.97
2022-08-17T19:56:37.863Z,3.60
2022-08-17T19:59:11.284Z,3.70
2022-08-17T20:01:47.979Z,4.03
2022-08-17T20:04:22.285Z,4.07
2022-08-17T20:06:50.287Z,3.70
2022-08-17T20:09:21.150Z,3.50
2022-08-17T20:11:50.454Z,3.40
2022-08-17T20:14:20.757Z,3.67
2022-08-17T20:16:48.551Z,3.30
2022-08-17T20:19:23.819Z,3.53
2022-08-17T20:21:55.277Z,3.57
2022-08-17T20:24:27.086Z,4.13
2022-08-17T20:26:58.393Z,3.93
2022-08-17T20:29:40.247Z,4.00
2022-08-17T20:32:20.080Z,4.03
2022-08-17T20:34:49.198Z,4.37
2022-08-17T20:37:30.076Z,4.20
2022-08-17T20:40:22.434Z,4.03
2022-08-17T20:42:49.940Z,3.43
2022-08-17T20:45:43.340Z,4.00
2022-08-17T20:48:36.210Z,4.33
2022-08-17T20:51:17.774Z,4.33
2022-08-17T20:54:02.070Z,3.63
2022-08-17T20:56:56.113Z,3.80
2022-08-17T21:00:04.873Z,4.37
2022-08-17T21:02:32.806Z,4.90
2022-08-17T21:05:30.340Z,3.70
2022-08-17T21:08:01.029Z,4.00
2022-08-17T21:10:38.506Z,4.30
2022-08-17T21:13:29.508Z,4.10
2022-08-17T21:15:59.882Z,4.50
2022-08-17T21:18:34.001Z,4.10
2022-08-17T21:21:14.146Z,4.80
2022-08-17T21:23:58.493Z,4.60
2022-08-17T21:26:33.222Z,5.17
2022-08-17T21:29:14.703Z,5.80
2022-08-17T21:32:21.060Z,4.20
2022-08-17T21:35:23.903Z,4.70
2022-08-17T21:37:54.003Z,4.80
2022-08-17T21:40:26.620Z,7.87
2022-08-17T21:42:57.994Z,7.77
2022-08-17T21:45:27.567Z,6.40
2022-08-17T21:48:09.442Z,5.07
2022-08-17T21:50:37.535Z,5.23
2022-08-17T21:53:05.919Z,5.20
2022-08-17T21:55:36.782Z,4.50
2022-08-17T21:58:14.427Z,5.37
2022-08-17T22:00:44.075Z,6.83
2022-08-17T22:03:23.581Z,7.43
2022-08-17T22:05:51.677Z,7.50
2022-08-17T22:08:24.674Z,5.67
2022-08-17T22:11:01.894Z,6.00
2022-08-17T22:13:30.039Z,4.83
2022-08-17T22:16:27.966Z,5.10
2022-08-17T22:18:57.836Z,4.77
2022-08-17T22:21:26.096Z,5.40
2022-08-17T22:24:04.822Z,4.53
2022-08-17T22:27:03.318Z,5.07
2022-08-17T22:29:57.494Z,4.60
2022-08-17T22:32:41.373Z,4.80
2022-08-17T22:35:37.240Z,5.00
2022-08-17T22:38:27.098Z,5.03
2022-08-17T22:40:57.354Z,4.90
2022-08-17T22:43:28.466Z,4.83
2022-08-17T22:45:59.111Z,4.90
2022-08-17T22:48:29.402Z,5.17
2022-08-17T22:51:12.797Z,4.77
2022-08-17T22:54:04.485Z,4.70
2022-08-17T22:56:49.872Z,4.97
2022-08-17T22:59:41.749Z,6.07
2022-08-17T23:02:27.462Z,4.60
2022-08-17T23:04:59.169Z,5.27
2022-08-17T23:07:27.649Z,4.73
2022-08-17T23:09:55.531Z,4.60
2022-08-17T23:12:26.274Z,5.60
2022-08-17T23:15:00.552Z,5.10
2022-08-17T23:17:33.917Z,5.30
2022-08-17T23:20:05.260Z,6.57
2022-08-17T23:22:33.254Z,5.70
2022-08-17T23:25:00.715Z,4.87
2022-08-17T23:27:29.258Z,7.00
2022-08-17T23:29:58.641Z,6.40
2022-08-17T23:32:26.363Z,5.00
2022-08-17T23:34:53.875Z,5.63
2022-08-17T23:37:21.360Z,4.87
2022-08-17T23:39:48.807Z,5.50
2022-08-17T23:42:21.599Z,6.70
2022-08-17T23:44:49.457Z,6.07
2022-08-17T23:47:18.448Z,6.83
2022-08-17T23:49:45.950Z,6.87
2022-08-17T23:52:16.345Z,6.37
2022-08-17T23:54:46.510Z,6.80
2022-08-17T23:57:16.675Z,6.70
2022-08-17T23:59:44.782Z,6.30
